^^

Nearby METAR Reports

 

EGAC - Belfast Harbour, United Kingdom
Distance from station: W 8mi, 13km
Updated: 25/04/2019 13:20
Mostly cloudy
Mostly cloudy
 Wind from ESE
Wind: ESE 17 mph , 28 km/h
Temperature: 12°C
Dew Point: 8°C
Humidity: 77%
Barometer: 994 hPa
Clouds: Mostly cloudy
Visibility: 6 miles , 10 km
Cloud details: Few Clouds 579 m
Partly cloudy 914 m
Mostly cloudy 1280 m
2019/04/25 12:20 EGAC 251220Z AUTO 11015KT 9999 FEW019/// SCT030/// BKN042/// 12/08 Q0994
EGAA - Belfast/Aldergro, United Kingdom
Distance from station: W 22mi, 35km
Updated: 25/04/2019 13:50
Mostly cloudy
Mostly cloudy
 Wind from ESE
Wind: ESE 13 mph , 20 km/h
Temperature: 12°C
Dew Point: 8°C
Humidity: 77%
Barometer: 994 hPa
Clouds: Mostly cloudy
Visibility: 6 miles , 10 km
Cloud details: Partly cloudy 457 m
Mostly cloudy 610 m
2019/04/25 12:50 EGAA 251250Z 12011KT 9999 SCT015 BKN020 12/08 Q0994
 
EGNS - Isle Of Man/Rona, United Kingdom
Distance from station: SE 57mi, 91km
Updated: 25/04/2019 13:50
Mostly cloudy
Mostly cloudy
 Wind from ESE
Wind: ESE 13 mph , 20 km/h
Temperature: 11°C
Dew Point: 9°C
Humidity: 88%
Barometer: 994 hPa
Clouds: Mostly cloudy
Visibility: 6 miles , 10 km
Cloud details: Few Clouds 427 m
Mostly cloudy 1463 m
2019/04/25 12:50 EGNS 251250Z 12011KT 9999 FEW014 BKN048 11/09 Q0994 NOSIG
EGPK - Prestwick(Civ/Na, United Kingdom
Distance from station: NE 74mi, 119km
Updated: 25/04/2019 13:50
Partly cloudy
Partly cloudy
 Wind from ESE
Wind: ESE 13 mph , 20 km/h
Temperature: 14°C
Dew Point: 8°C
Humidity: 67%
Barometer: 996 hPa
Clouds: Partly cloudy
Visibility: 6 miles , 10 km
Cloud details: Few Clouds 610 m
Partly cloudy 1219 m
2019/04/25 12:50 EGPK 251250Z 11011KT 060V130 9999 FEW020 SCT040 14/08 Q0996
 
EIDW - Dublin Airport, Ireland
Distance from station: SSW 87mi, 141km
Updated: 25/04/2019 13:30
Light rain, Mostly cloudy
Light rain, Mostly cloudy
 Wind from ENE
Wind: ENE 9 mph , 15 km/h
Temperature: 9°C
Wind Chill: 7°C
Dew Point: 8°C
Humidity: 94%
Barometer: 992 hPa
Summary: Light rain
Clouds: Mostly cloudy
Visibility: 2 miles , 4 km
Cloud details: Mostly cloudy 122 m
Mostly cloudy 610 m
2019/04/25 12:30 EIDW 251230Z 07008KT 3500 -RA BKN004 BKN020 09/08 Q0992 TEMPO 8000
EGPF - Glasgow Airport, United Kingdom
Distance from station: NNE 98mi, 158km
Updated: 25/04/2019 13:50
Light rain, Mostly cloudy
Light rain, Mostly cloudy
 Wind from SE
Wind: SE 20 mph , 31 km/h
Temperature: 14°C
Dew Point: 7°C
Humidity: 63%
Barometer: 996 hPa
Summary: Light rain
Clouds: Mostly cloudy
Visibility: 6 miles , 10 km
Cloud details: Mostly cloudy 1372 m
2019/04/25 12:50 EGPF 251250Z AUTO 13017KT 9999 -RA BKN045 14/07 Q0996